createdAt,value
2022-12-14T00:01:55.134Z,3.60
2022-12-14T00:04:23.910Z,7.35
2022-12-14T00:06:52.693Z,6.35
2022-12-14T00:09:21.239Z,6.63
2022-12-14T00:11:50.744Z,6.53
2022-12-14T00:14:19.299Z,5.30
2022-12-14T00:16:50.762Z,12.93
2022-12-14T00:19:19.368Z,8.15
2022-12-14T00:21:47.864Z,8.00
2022-12-14T00:24:16.478Z,8.65
2022-12-14T00:26:44.988Z,6.45
2022-12-14T00:29:13.594Z,10.07
2022-12-14T00:31:42.198Z,5.82
2022-12-14T00:34:12.246Z,8.00
2022-12-14T00:36:40.838Z,5.47
2022-12-14T00:39:09.620Z,5.68
2022-12-14T00:41:38.172Z,9.70
2022-12-14T00:44:08.633Z,8.02
2022-12-14T00:46:37.405Z,7.57
2022-12-14T00:49:06.005Z,8.27
2022-12-14T00:51:35.979Z,7.70
2022-12-14T00:54:04.618Z,7.00
2022-12-14T00:56:33.417Z,6.40
2022-12-14T00:59:02.141Z,7.90
2022-12-14T01:01:31.648Z,5.35
2022-12-14T01:04:14.146Z,8.05
2022-12-14T01:06:44.474Z,8.23
2022-12-14T01:09:13.300Z,6.40
2022-12-14T01:11:42.734Z,11.10
2022-12-14T01:14:13.127Z,7.22
2022-12-14T01:16:42.049Z,14.23
2022-12-14T01:19:11.582Z,5.37
2022-12-14T01:21:40.394Z,4.13
2022-12-14T01:24:11.018Z,5.07
2022-12-14T01:26:40.852Z,5.60
2022-12-14T01:31:39.287Z,6.47
2022-12-14T01:34:08.407Z,4.75
2022-12-14T01:36:38.210Z,4.40
2022-12-14T01:41:39.480Z,5.57
2022-12-14T01:44:41.600Z,10.13
2022-12-14T01:47:19.392Z,7.88
2022-12-14T01:49:52.618Z,7.65
2022-12-14T01:52:24.353Z,5.20
2022-12-14T01:54:59.631Z,6.50
2022-12-14T01:57:34.317Z,7.43
2022-12-14T02:00:07.123Z,4.35
2022-12-14T02:02:37.617Z,8.57
2022-12-14T02:05:09.281Z,5.95
2022-12-14T02:07:38.713Z,6.60
2022-12-14T02:10:09.304Z,6.03
2022-12-14T02:12:42.945Z,6.00
2022-12-14T02:15:13.880Z,5.90
2022-12-14T02:17:45.304Z,6.75
2022-12-14T02:20:15.039Z,7.38
2022-12-14T02:23:29.385Z,4.97
2022-12-14T02:26:31.955Z,5.85
2022-12-14T02:29:29.955Z,4.88
2022-12-14T02:32:10.841Z,6.90
2022-12-14T02:34:54.742Z,4.78
2022-12-14T02:37:31.510Z,7.38
2022-12-14T02:40:18.903Z,6.50
2022-12-14T02:42:55.931Z,8.13
2022-12-14T02:45:34.601Z,12.23
2022-12-14T02:48:07.599Z,7.90
2022-12-14T02:50:58.219Z,9.57
2022-12-14T02:53:42.289Z,11.38
2022-12-14T02:56:18.313Z,13.90
2022-12-14T02:58:50.772Z,16.00
2022-12-14T03:01:23.990Z,13.63
2022-12-14T03:03:53.857Z,12.73
2022-12-14T03:06:27.178Z,12.30
2022-12-14T03:09:00.903Z,8.90
2022-12-14T03:11:37.142Z,8.30
2022-12-14T03:14:11.698Z,11.63
2022-12-14T03:16:44.308Z,10.80
2022-12-14T03:19:19.525Z,10.13
2022-12-14T03:21:51.783Z,9.90
2022-12-14T03:24:24.999Z,8.20
2022-12-14T03:26:57.659Z,12.32
2022-12-14T03:29:29.678Z,10.73
2022-12-14T03:32:02.172Z,12.07
2022-12-14T03:34:35.269Z,13.60
2022-12-14T03:37:10.921Z,6.80
2022-12-14T03:39:42.900Z,9.02
2022-12-14T03:42:18.196Z,6.75
2022-12-14T03:44:53.595Z,8.10
2022-12-14T03:47:39.474Z,7.70
2022-12-14T03:50:12.719Z,9.77
2022-12-14T03:52:47.728Z,11.10
2022-12-14T03:55:27.074Z,11.25
2022-12-14T03:58:10.652Z,14.55
2022-12-14T04:00:46.577Z,11.23
2022-12-14T04:03:26.100Z,13.68
2022-12-14T04:06:03.240Z,12.50
2022-12-14T04:08:41.817Z,14.20
2022-12-14T04:11:31.719Z,14.50
2022-12-14T04:14:25.876Z,15.05
2022-12-14T04:17:13.924Z,23.25
2022-12-14T04:19:50.521Z,22.60
2022-12-14T04:22:23.065Z,17.50
2022-12-14T04:25:15.973Z,8.43
2022-12-14T04:27:49.421Z,9.57
2022-12-14T04:30:17.315Z,7.13
2022-12-14T04:32:50.184Z,9.27
2022-12-14T04:35:24.886Z,8.02
2022-12-14T04:37:57.074Z,10.27
2022-12-14T04:40:29.228Z,9.80
2022-12-14T04:43:02.765Z,8.82
2022-12-14T04:45:36.221Z,8.23
2022-12-14T04:48:11.720Z,10.60
2022-12-14T04:50:46.901Z,12.63
2022-12-14T04:53:19.671Z,12.27
2022-12-14T04:55:54.278Z,21.35
2022-12-14T04:58:26.543Z,13.85
2022-12-14T05:01:13.298Z,12.63
2022-12-14T05:03:52.498Z,11.90
2022-12-14T05:06:28.095Z,9.90
2022-12-14T05:09:17.989Z,17.25
2022-12-14T05:11:54.371Z,11.48
2022-12-14T05:14:28.972Z,12.45
2022-12-14T05:16:59.665Z,9.60
2022-12-14T05:19:29.861Z,11.48
2022-12-14T05:22:02.940Z,10.35
2022-12-14T05:24:31.456Z,8.38
2022-12-14T05:27:00.019Z,12.85
2022-12-14T05:29:28.703Z,10.38
2022-12-14T05:31:57.365Z,11.23
2022-12-14T05:34:26.013Z,10.75
2022-12-14T05:36:54.660Z,16.35
2022-12-14T05:39:24.662Z,18.48
2022-12-14T05:41:53.816Z,13.88
2022-12-14T05:44:22.367Z,13.95
2022-12-14T05:46:50.964Z,11.13
2022-12-14T05:49:19.432Z,10.20
2022-12-14T05:51:49.160Z,12.35
2022-12-14T05:54:17.842Z,11.60
2022-12-14T05:56:48.984Z,12.18
2022-12-14T05:59:18.443Z,11.45
2022-12-14T06:01:50.000Z,12.55
2022-12-14T06:04:20.307Z,17.38
2022-12-14T06:06:50.267Z,10.85
2022-12-14T06:09:19.709Z,9.70
2022-12-14T06:11:50.193Z,11.45
2022-12-14T06:14:19.547Z,10.15
2022-12-14T06:16:48.738Z,11.60
2022-12-14T06:19:17.373Z,14.18
2022-12-14T06:21:46.162Z,10.65
2022-12-14T06:24:14.987Z,10.38
2022-12-14T06:26:43.636Z,8.77
2022-12-14T06:29:18.041Z,8.55
2022-12-14T06:31:49.410Z,12.07
2022-12-14T06:34:20.387Z,10.05
2022-12-14T06:36:52.154Z,11.25
2022-12-14T06:39:20.682Z,13.07
2022-12-14T06:41:52.076Z,8.95
2022-12-14T06:44:22.238Z,8.68
2022-12-14T06:46:50.956Z,12.88
2022-12-14T06:49:19.495Z,11.57
2022-12-14T06:51:48.105Z,10.48
2022-12-14T06:54:17.874Z,11.20
2022-12-14T06:59:17.821Z,11.95
2022-12-14T07:01:49.834Z,11.05
2022-12-14T07:04:21.388Z,10.70
2022-12-14T07:06:50.450Z,10.07
2022-12-14T07:09:19.245Z,13.30
2022-12-14T07:11:48.089Z,52.57
2022-12-14T07:14:18.148Z,16.48
2022-12-14T07:16:49.002Z,16.83
2022-12-14T07:19:18.592Z,111.93
2022-12-14T07:21:47.446Z,119.10
2022-12-14T07:24:16.152Z,203.85
2022-12-14T07:26:44.864Z,151.07
2022-12-14T07:29:15.228Z,65.13
2022-12-14T07:31:43.910Z,15.63
2022-12-14T07:34:20.149Z,13.00
2022-12-14T07:36:51.582Z,20.42
2022-12-14T07:39:20.826Z,16.35
2022-12-14T07:41:50.678Z,15.80
2022-12-14T07:44:22.981Z,16.23
2022-12-14T07:46:51.592Z,15.37
2022-12-14T07:49:21.780Z,14.90
2022-12-14T07:51:50.737Z,15.10
2022-12-14T07:54:19.284Z,13.47
2022-12-14T07:56:47.870Z,14.88
2022-12-14T07:59:18.560Z,15.35
2022-12-14T08:01:47.200Z,14.98
2022-12-14T08:04:18.562Z,12.25
2022-12-14T08:06:49.515Z,10.52
2022-12-14T08:09:20.359Z,11.27
2022-12-14T08:11:49.061Z,10.85
2022-12-14T08:14:20.104Z,14.85
2022-12-14T08:16:50.233Z,9.40
2022-12-14T08:19:20.154Z,12.65
2022-12-14T08:21:50.186Z,11.70
2022-12-14T08:24:18.843Z,9.07
2022-12-14T08:26:49.355Z,9.48
2022-12-14T08:29:19.235Z,11.32
2022-12-14T08:31:48.080Z,9.80
2022-12-14T08:34:22.946Z,17.67
2022-12-14T08:36:53.023Z,11.80
2022-12-14T08:39:21.627Z,10.63
2022-12-14T08:41:50.155Z,9.68
2022-12-14T08:44:18.911Z,9.52
2022-12-14T08:46:47.990Z,14.60
2022-12-14T08:49:16.811Z,12.63
2022-12-14T08:51:45.348Z,12.55
2022-12-14T08:54:15.429Z,13.73
2022-12-14T08:56:43.945Z,9.52
2022-12-14T08:59:29.939Z,15.13
2022-12-14T09:02:01.227Z,10.45
2022-12-14T09:04:30.198Z,18.33
2022-12-14T09:06:58.888Z,15.57
2022-12-14T09:09:29.146Z,15.38
2022-12-14T09:11:57.673Z,17.83
2022-12-14T09:14:26.473Z,13.35
2022-12-14T09:16:55.036Z,19.98
2022-12-14T09:19:23.638Z,13.05
2022-12-14T09:21:52.255Z,15.65
2022-12-14T09:24:21.429Z,12.75
2022-12-14T09:26:51.943Z,12.73
2022-12-14T09:29:21.128Z,16.45
2022-12-14T09:31:49.699Z,11.20
2022-12-14T09:34:18.380Z,14.82
2022-12-14T09:36:47.132Z,15.80
2022-12-14T09:39:15.832Z,13.85
2022-12-14T09:42:05.313Z,11.30
2022-12-14T09:44:52.668Z,13.07
2022-12-14T09:47:25.966Z,12.65
2022-12-14T09:49:58.455Z,15.00
2022-12-14T09:52:35.645Z,12.93
2022-12-14T09:55:10.440Z,15.52
2022-12-14T09:57:42.868Z,15.25
2022-12-14T10:00:18.238Z,15.57
2022-12-14T10:03:06.370Z,18.08
2022-12-14T10:05:51.667Z,12.57
2022-12-14T10:08:27.838Z,12.95
2022-12-14T10:11:05.212Z,14.23
2022-12-14T10:13:37.412Z,16.10
2022-12-14T10:16:15.826Z,17.50
2022-12-14T10:19:17.359Z,19.73
2022-12-14T10:21:51.123Z,22.20
2022-12-14T10:24:24.708Z,18.95
2022-12-14T10:26:55.949Z,18.48
2022-12-14T10:29:32.768Z,36.03
2022-12-14T10:32:15.183Z,32.13
2022-12-14T10:34:44.886Z,163.02
2022-12-14T10:37:25.906Z,47.00
2022-12-14T10:40:12.696Z,29.25
2022-12-14T10:45:40.142Z,21.02
2022-12-14T10:48:24.867Z,26.35
2022-12-14T10:51:01.721Z,21.00
2022-12-14T10:53:40.927Z,20.90
2022-12-14T10:58:41.965Z,20.73
2022-12-14T11:01:15.818Z,23.90
2022-12-14T11:03:47.696Z,71.00
2022-12-14T11:06:18.645Z,39.05
2022-12-14T11:08:49.125Z,41.25
2022-12-14T11:11:19.897Z,77.68
2022-12-14T11:13:55.137Z,42.08
2022-12-14T11:16:38.934Z,28.38
2022-12-14T11:19:16.982Z,154.10
2022-12-14T11:21:46.409Z,33.50
2022-12-14T11:24:26.227Z,61.78
2022-12-14T11:26:59.374Z,30.20
2022-12-14T11:29:32.832Z,46.97
2022-12-14T11:32:06.263Z,99.53
2022-12-14T11:34:39.262Z,31.50
2022-12-14T11:37:14.650Z,36.35
2022-12-14T11:39:43.846Z,20.00
2022-12-14T11:42:19.068Z,80.47
2022-12-14T11:44:49.984Z,44.30
2022-12-14T11:47:22.464Z,42.30
2022-12-14T11:49:54.445Z,49.35
2022-12-14T11:52:25.219Z,59.42
2022-12-14T11:55:12.006Z,54.53
2022-12-14T11:57:50.255Z,17.83
2022-12-14T12:00:29.776Z,28.23
2022-12-14T12:03:03.798Z,16.80
2022-12-14T12:05:34.281Z,17.88
2022-12-14T12:08:04.011Z,16.35
2022-12-14T12:13:17.316Z,16.25
2022-12-14T12:15:53.669Z,19.33
2022-12-14T12:18:32.893Z,16.63
2022-12-14T12:21:09.797Z,14.87
2022-12-14T12:23:43.598Z,11.40
2022-12-14T12:26:18.590Z,14.50
2022-12-14T12:28:53.241Z,16.85
2022-12-14T12:31:29.422Z,12.68
2022-12-14T12:34:06.345Z,16.73
2022-12-14T12:36:35.055Z,12.43
2022-12-14T12:39:07.202Z,12.98
2022-12-14T12:41:45.818Z,11.48
2022-12-14T12:44:35.134Z,12.13
2022-12-14T12:47:25.478Z,12.73
2022-12-14T12:50:02.092Z,11.40
2022-12-14T12:52:35.266Z,10.38
2022-12-14T12:55:09.523Z,12.43
2022-12-14T12:57:43.299Z,11.23
2022-12-14T13:00:18.453Z,15.65
2022-12-14T13:02:50.942Z,12.65
2022-12-14T13:08:21.204Z,12.93
2022-12-14T13:13:45.873Z,12.60
2022-12-14T13:16:23.163Z,11.32
2022-12-14T13:19:08.941Z,10.02
2022-12-14T13:21:52.125Z,12.48
2022-12-14T13:24:22.626Z,10.20
2022-12-14T13:27:19.101Z,10.85
2022-12-14T13:30:22.855Z,15.32
2022-12-14T13:33:23.634Z,12.63
2022-12-14T13:36:14.861Z,11.35
2022-12-14T13:39:02.834Z,14.45
2022-12-14T13:41:37.982Z,9.82
2022-12-14T13:44:35.754Z,12.98
2022-12-14T13:47:13.901Z,12.60
2022-12-14T13:49:42.920Z,15.55
2022-12-14T13:52:36.883Z,15.65
2022-12-14T13:55:25.353Z,13.00
2022-12-14T13:57:54.471Z,15.07
2022-12-14T14:00:58.056Z,15.75
2022-12-14T14:03:52.196Z,14.75
2022-12-14T14:06:34.363Z,13.45
2022-12-14T14:09:41.232Z,19.30
2022-12-14T14:12:33.728Z,15.32
2022-12-14T14:15:26.093Z,14.73
2022-12-14T14:17:56.192Z,15.40
2022-12-14T14:20:40.528Z,22.45
2022-12-14T14:23:32.124Z,14.18
2022-12-14T14:26:28.597Z,15.55
2022-12-14T14:29:22.246Z,15.25
2022-12-14T14:31:58.885Z,14.13
2022-12-14T14:34:50.069Z,15.43
2022-12-14T14:37:32.753Z,19.88
2022-12-14T14:40:20.669Z,47.85
2022-12-14T14:42:57.469Z,127.28
2022-12-14T14:45:35.477Z,17.20
2022-12-14T14:48:10.035Z,23.85
2022-12-14T14:50:42.535Z,26.95
2022-12-14T14:53:29.969Z,36.28
2022-12-14T14:56:21.154Z,18.55
2022-12-14T14:58:51.132Z,37.85
2022-12-14T15:01:32.591Z,17.48
2022-12-14T15:04:19.851Z,16.42
2022-12-14T15:06:57.154Z,15.65
2022-12-14T15:09:33.745Z,19.48
2022-12-14T15:12:10.000Z,17.58
2022-12-14T15:14:48.226Z,16.55
2022-12-14T15:17:24.997Z,15.45
2022-12-14T15:19:57.482Z,17.00
2022-12-14T15:22:28.839Z,17.70
2022-12-14T15:24:59.795Z,50.63
2022-12-14T15:27:30.633Z,61.97
2022-12-14T15:30:04.153Z,18.90
2022-12-14T15:32:36.490Z,16.70
2022-12-14T15:35:08.266Z,18.23
2022-12-14T15:37:46.317Z,18.35
2022-12-14T15:40:22.503Z,15.60
2022-12-14T15:42:53.083Z,13.73
2022-12-14T15:45:23.841Z,19.02
2022-12-14T15:47:54.092Z,21.23
2022-12-14T15:50:26.114Z,19.75
2022-12-14T15:52:57.182Z,33.42
2022-12-14T15:55:33.533Z,44.17
2022-12-14T15:58:08.576Z,30.75
2022-12-14T16:00:40.960Z,23.20
2022-12-14T16:03:29.337Z,18.05
2022-12-14T16:06:00.081Z,22.90
2022-12-14T16:08:29.889Z,33.75
2022-12-14T16:11:01.777Z,38.00
2022-12-14T16:13:41.985Z,38.47
2022-12-14T16:16:28.239Z,28.30
2022-12-14T16:19:20.361Z,17.40
2022-12-14T16:21:51.104Z,30.10
2022-12-14T16:24:25.040Z,16.75
2022-12-14T16:26:59.356Z,36.13
2022-12-14T16:29:29.523Z,15.48
2022-12-14T16:32:02.623Z,18.95
2022-12-14T16:34:33.474Z,15.75
2022-12-14T16:37:31.733Z,19.88
2022-12-14T16:39:54.371Z,20.05
2022-12-14T16:42:25.022Z,23.63
2022-12-14T16:44:54.861Z,34.35
2022-12-14T16:50:00.421Z,21.70
2022-12-14T16:52:31.438Z,23.25
2022-12-14T16:55:11.948Z,24.48
2022-12-14T16:57:43.637Z,17.83
2022-12-14T17:00:23.240Z,22.05
2022-12-14T17:02:56.930Z,19.98
2022-12-14T17:05:30.146Z,18.52
2022-12-14T17:07:58.766Z,33.15
2022-12-14T17:10:28.636Z,20.85
2022-12-14T17:15:27.975Z,18.55
2022-12-14T17:17:59.954Z,24.48
2022-12-14T17:20:32.293Z,24.58
2022-12-14T17:23:02.954Z,19.05
2022-12-14T17:25:33.245Z,24.42
2022-12-14T17:28:02.584Z,23.50
2022-12-14T17:30:31.821Z,19.15
2022-12-14T17:33:00.538Z,19.15
2022-12-14T17:35:32.376Z,18.08
2022-12-14T17:38:01.269Z,21.50
2022-12-14T17:40:29.924Z,20.63
2022-12-14T17:42:59.707Z,18.77
2022-12-14T17:47:57.979Z,20.67
2022-12-14T17:50:26.627Z,23.40
2022-12-14T17:52:56.751Z,20.70
2022-12-14T17:55:27.457Z,21.80
2022-12-14T17:57:56.885Z,24.10
2022-12-14T18:00:45.071Z,21.67
2022-12-14T18:03:15.374Z,25.98
2022-12-14T18:05:48.828Z,23.88
2022-12-14T18:08:19.866Z,19.73
2022-12-14T18:10:51.082Z,22.90
2022-12-14T18:13:20.085Z,24.35
2022-12-14T18:15:50.626Z,20.92
2022-12-14T18:18:20.130Z,29.33
2022-12-14T18:20:52.196Z,42.53
2022-12-14T18:23:23.068Z,415.75
2022-12-14T18:25:54.012Z,614.83
2022-12-14T18:28:25.309Z,499.00
2022-12-14T18:30:57.614Z,82.25
2022-12-14T18:33:28.381Z,212.73
2022-12-14T18:35:58.359Z,54.97
2022-12-14T18:38:28.426Z,70.13
2022-12-14T18:41:00.347Z,34.83
2022-12-14T18:43:30.027Z,30.80
2022-12-14T18:45:59.255Z,29.63
2022-12-14T18:48:27.929Z,31.13
2022-12-14T18:50:57.142Z,27.08
2022-12-14T18:53:28.231Z,31.10
2022-12-14T18:55:57.226Z,26.27
2022-12-14T18:58:28.219Z,24.65
2022-12-14T19:00:59.741Z,25.95
2022-12-14T19:03:31.228Z,28.05
2022-12-14T19:09:03.049Z,31.77
2022-12-14T19:11:36.023Z,29.98
2022-12-14T19:14:04.690Z,21.90
2022-12-14T19:16:33.399Z,33.70
2022-12-14T19:19:04.685Z,27.98
2022-12-14T19:21:33.395Z,32.45
2022-12-14T19:24:03.405Z,27.83
2022-12-14T19:26:32.500Z,28.88
2022-12-14T19:29:01.076Z,32.60
2022-12-14T19:31:29.835Z,31.95
2022-12-14T19:33:58.570Z,33.67
2022-12-14T19:36:27.545Z,43.03
2022-12-14T19:38:56.194Z,37.83
2022-12-14T19:41:26.164Z,32.78
2022-12-14T19:43:57.480Z,31.65
2022-12-14T19:46:26.352Z,36.00
2022-12-14T19:48:55.949Z,33.70
2022-12-14T19:51:24.644Z,50.15
2022-12-14T19:53:55.223Z,41.08
2022-12-14T19:56:25.623Z,37.40
2022-12-14T19:58:57.796Z,35.95
2022-12-14T20:01:26.556Z,33.38
2022-12-14T20:03:56.065Z,34.30
2022-12-14T20:06:26.069Z,32.03
2022-12-14T20:09:00.511Z,30.63
2022-12-14T20:11:34.866Z,34.17
2022-12-14T20:14:03.947Z,36.63
2022-12-14T20:16:32.752Z,38.22
2022-12-14T20:19:01.477Z,28.73
2022-12-14T20:21:34.251Z,33.17
2022-12-14T20:24:11.723Z,34.53
2022-12-14T20:26:41.820Z,29.98
2022-12-14T20:29:11.465Z,27.35
2022-12-14T20:31:40.192Z,140.38
2022-12-14T20:34:09.194Z,86.25
2022-12-14T20:36:38.022Z,118.97
2022-12-14T20:39:07.985Z,46.47
2022-12-14T20:41:36.669Z,32.65
2022-12-14T20:44:09.366Z,451.08
2022-12-14T20:46:39.624Z,56.55
2022-12-14T20:49:11.218Z,30.73
2022-12-14T20:51:40.898Z,33.42
2022-12-14T20:54:12.689Z,33.03
2022-12-14T20:56:41.718Z,34.22
2022-12-14T20:59:14.333Z,40.37
2022-12-14T21:01:44.060Z,35.40
2022-12-14T21:06:42.664Z,38.42
2022-12-14T21:09:12.873Z,34.75
2022-12-14T21:12:01.575Z,36.42
2022-12-14T21:14:34.530Z,34.20
2022-12-14T21:17:06.195Z,32.20
2022-12-14T21:19:38.996Z,35.67
2022-12-14T21:22:14.398Z,35.60
2022-12-14T21:25:02.495Z,39.78
2022-12-14T21:27:32.240Z,43.40
2022-12-14T21:30:02.582Z,40.38
2022-12-14T21:32:31.235Z,37.92
2022-12-14T21:34:59.823Z,38.08
2022-12-14T21:37:28.664Z,37.45
2022-12-14T21:39:57.295Z,37.20
2022-12-14T21:42:25.443Z,42.90
2022-12-14T21:44:55.422Z,38.90
2022-12-14T21:47:28.022Z,36.95
2022-12-14T21:49:56.984Z,36.25
2022-12-14T21:52:28.080Z,34.17
2022-12-14T21:54:58.706Z,39.55
2022-12-14T21:57:49.572Z,38.85
2022-12-14T22:00:20.319Z,39.25
2022-12-14T22:02:50.476Z,36.08
2022-12-14T22:05:19.554Z,38.85
2022-12-14T22:07:48.210Z,39.08
2022-12-14T22:10:22.854Z,39.97
2022-12-14T22:12:53.579Z,35.78
2022-12-14T22:15:22.208Z,36.75
2022-12-14T22:17:52.797Z,37.10
2022-12-14T22:20:21.412Z,35.50
2022-12-14T22:22:49.900Z,32.97
2022-12-14T22:25:19.781Z,38.00
2022-12-14T22:27:49.710Z,36.47
2022-12-14T22:30:19.548Z,37.33
2022-12-14T22:32:48.467Z,33.70
2022-12-14T22:35:18.822Z,30.97
2022-12-14T22:37:47.559Z,38.72
2022-12-14T22:40:16.262Z,36.53
2022-12-14T22:42:45.341Z,40.67
2022-12-14T22:45:14.146Z,41.47
2022-12-14T22:47:42.763Z,40.58
2022-12-14T22:50:11.953Z,40.53
2022-12-14T22:52:41.887Z,37.10
2022-12-14T22:55:11.475Z,39.60
2022-12-14T22:57:44.415Z,41.10
2022-12-14T23:00:16.571Z,41.97
2022-12-14T23:02:48.089Z,41.95
2022-12-14T23:05:18.921Z,41.85
2022-12-14T23:07:49.042Z,42.08
2022-12-14T23:10:35.510Z,42.42
2022-12-14T23:13:21.782Z,42.17
2022-12-14T23:16:08.399Z,44.60
2022-12-14T23:18:55.248Z,41.13
2022-12-14T23:21:41.846Z,40.28
2022-12-14T23:24:30.930Z,39.97
2022-12-14T23:27:17.234Z,41.30
2022-12-14T23:30:05.005Z,41.95
2022-12-14T23:32:51.450Z,38.03
2022-12-14T23:35:38.121Z,41.80
2022-12-14T23:38:24.953Z,38.97
2022-12-14T23:41:17.373Z,40.75
2022-12-14T23:44:03.746Z,36.00
2022-12-14T23:46:50.178Z,40.53
2022-12-14T23:49:36.141Z,40.22
2022-12-14T23:52:22.067Z,35.67
2022-12-14T23:55:08.086Z,42.67
2022-12-14T23:57:55.424Z,40.13
